sensor_id;sensor_type;location;lat;lon;timestamp;temperature;humidity
8420;DHT22;4247;48.550;8.822;2023-04-19T00:00:05;9.70;99.90
8420;DHT22;4247;48.550;8.822;2023-04-19T00:02:33;9.70;99.90
8420;DHT22;4247;48.550;8.822;2023-04-19T00:04:59;9.70;99.90
8420;DHT22;4247;48.550;8.822;2023-04-19T00:07:27;9.70;99.90
8420;DHT22;4247;48.550;8.822;2023-04-19T00:09:55;9.70;99.90
8420;DHT22;4247;48.550;8.822;2023-04-19T00:12:21;9.70;99.90
8420;DHT22;4247;48.550;8.822;2023-04-19T00:14:48;9.60;99.90
8420;DHT22;4247;48.550;8.822;2023-04-19T00:17:15;9.60;99.90
8420;DHT22;4247;48.550;8.822;2023-04-19T00:19:41;9.70;99.90
8420;DHT22;4247;48.550;8.822;2023-04-19T00:22:08;9.70;99.90
8420;DHT22;4247;48.550;8.822;2023-04-19T00:24:35;9.60;99.90
8420;DHT22;4247;48.550;8.822;2023-04-19T00:27:03;9.60;99.90
8420;DHT22;4247;48.550;8.822;2023-04-19T00:29:30;9.60;99.90
8420;DHT22;4247;48.550;8.822;2023-04-19T00:31:57;9.60;99.90
8420;DHT22;4247;48.550;8.822;2023-04-19T00:34:23;9.60;99.90
8420;DHT22;4247;48.550;8.822;2023-04-19T00:36:50;9.60;99.90
8420;DHT22;4247;48.550;8.822;2023-04-19T00:39:17;9.60;99.90
8420;DHT22;4247;48.550;8.822;2023-04-19T00:41:43;9.60;99.90
8420;DHT22;4247;48.550;8.822;2023-04-19T00:44:12;9.60;99.90
8420;DHT22;4247;48.550;8.822;2023-04-19T00:46:39;9.60;99.90
8420;DHT22;4247;48.550;8.822;2023-04-19T00:49:06;9.60;99.90
8420;DHT22;4247;48.550;8.822;2023-04-19T00:51:33;9.60;99.90
8420;DHT22;4247;48.550;8.822;2023-04-19T00:54:01;9.50;99.90
8420;DHT22;4247;48.550;8.822;2023-04-19T00:56:28;9.50;99.90
8420;DHT22;4247;48.550;8.822;2023-04-19T00:58:55;9.50;99.90
8420;DHT22;4247;48.550;8.822;2023-04-19T01:01:23;9.50;99.90
8420;DHT22;4247;48.550;8.822;2023-04-19T01:03:50;9.50;99.90
8420;DHT22;4247;48.550;8.822;2023-04-19T01:06:17;9.50;99.90
8420;DHT22;4247;48.550;8.822;2023-04-19T01:08:44;9.50;99.90
8420;DHT22;4247;48.550;8.822;2023-04-19T01:11:10;9.50;99.90
8420;DHT22;4247;48.550;8.822;2023-04-19T01:13:37;9.50;99.90
8420;DHT22;4247;48.550;8.822;2023-04-19T01:16:05;9.50;99.90
8420;DHT22;4247;48.550;8.822;2023-04-19T01:18:33;9.40;99.90
8420;DHT22;4247;48.550;8.822;2023-04-19T01:21:02;9.40;99.90
8420;DHT22;4247;48.550;8.822;2023-04-19T01:23:30;9.40;99.90
8420;DHT22;4247;48.550;8.822;2023-04-19T01:25:57;9.40;99.90
8420;DHT22;4247;48.550;8.822;2023-04-19T01:28:25;9.40;99.90
8420;DHT22;4247;48.550;8.822;2023-04-19T01:30:52;9.40;99.90
8420;DHT22;4247;48.550;8.822;2023-04-19T01:33:19;9.40;99.90
8420;DHT22;4247;48.550;8.822;2023-04-19T01:35:46;9.40;99.90
8420;DHT22;4247;48.550;8.822;2023-04-19T01:38:13;9.30;99.90
8420;DHT22;4247;48.550;8.822;2023-04-19T01:40:41;9.30;99.90
8420;DHT22;4247;48.550;8.822;2023-04-19T01:43:10;9.30;99.90
8420;DHT22;4247;48.550;8.822;2023-04-19T01:45:37;9.30;99.90
8420;DHT22;4247;48.550;8.822;2023-04-19T01:48:04;9.30;99.90
8420;DHT22;4247;48.550;8.822;2023-04-19T01:50:31;9.30;99.90
8420;DHT22;4247;48.550;8.822;2023-04-19T01:52:59;9.20;99.90
8420;DHT22;4247;48.550;8.822;2023-04-19T01:55:25;9.20;99.90
8420;DHT22;4247;48.550;8.822;2023-04-19T01:57:54;9.20;99.90
8420;DHT22;4247;48.550;8.822;2023-04-19T02:00:21;9.20;99.90
8420;DHT22;4247;48.550;8.822;2023-04-19T02:02:48;9.20;99.90
8420;DHT22;4247;48.550;8.822;2023-04-19T02:05:15;9.20;99.90
8420;DHT22;4247;48.550;8.822;2023-04-19T02:07:41;9.20;99.90
8420;DHT22;4247;48.550;8.822;2023-04-19T02:10:09;9.20;99.90
8420;DHT22;4247;48.550;8.822;2023-04-19T02:12:36;9.20;99.90
8420;DHT22;4247;48.550;8.822;2023-04-19T02:15:06;9.20;99.90
8420;DHT22;4247;48.550;8.822;2023-04-19T02:17:33;9.20;99.90
8420;DHT22;4247;48.550;8.822;2023-04-19T02:20:00;9.20;99.90
8420;DHT22;4247;48.550;8.822;2023-04-19T02:22:29;9.20;99.90
8420;DHT22;4247;48.550;8.822;2023-04-19T02:24:55;9.20;99.90
8420;DHT22;4247;48.550;8.822;2023-04-19T02:27:22;9.10;99.90
8420;DHT22;4247;48.550;8.822;2023-04-19T02:29:48;9.10;99.90
8420;DHT22;4247;48.550;8.822;2023-04-19T02:32:17;9.10;99.90
8420;DHT22;4247;48.550;8.822;2023-04-19T02:34:43;9.10;99.90
8420;DHT22;4247;48.550;8.822;2023-04-19T02:37:10;9.10;99.90
8420;DHT22;4247;48.550;8.822;2023-04-19T02:39:37;9.10;99.90
8420;DHT22;4247;48.550;8.822;2023-04-19T02:42:06;9.10;99.90
8420;DHT22;4247;48.550;8.822;2023-04-19T02:44:32;9.10;99.90
8420;DHT22;4247;48.550;8.822;2023-04-19T02:46:59;9.00;99.90
8420;DHT22;4247;48.550;8.822;2023-04-19T02:49:29;9.00;99.90
8420;DHT22;4247;48.550;8.822;2023-04-19T02:51:59;9.10;99.90
8420;DHT22;4247;48.550;8.822;2023-04-19T02:54:25;9.00;99.90
8420;DHT22;4247;48.550;8.822;2023-04-19T02:56:52;9.00;99.90
8420;DHT22;4247;48.550;8.822;2023-04-19T02:59:18;9.10;99.90
8420;DHT22;4247;48.550;8.822;2023-04-19T03:01:45;9.10;99.90
8420;DHT22;4247;48.550;8.822;2023-04-19T03:04:12;9.00;99.90
8420;DHT22;4247;48.550;8.822;2023-04-19T03:06:40;9.10;99.90
8420;DHT22;4247;48.550;8.822;2023-04-19T03:09:08;9.10;99.90
8420;DHT22;4247;48.550;8.822;2023-04-19T03:11:35;9.10;99.90
8420;DHT22;4247;48.550;8.822;2023-04-19T03:14:03;9.10;99.90
8420;DHT22;4247;48.550;8.822;2023-04-19T03:16:29;9.10;99.90
8420;DHT22;4247;48.550;8.822;2023-04-19T03:18:56;9.10;99.90
8420;DHT22;4247;48.550;8.822;2023-04-19T03:21:23;9.00;99.90
8420;DHT22;4247;48.550;8.822;2023-04-19T03:23:53;9.00;99.90
8420;DHT22;4247;48.550;8.822;2023-04-19T03:26:19;9.00;99.90
8420;DHT22;4247;48.550;8.822;2023-04-19T03:28:46;9.00;99.90
8420;DHT22;4247;48.550;8.822;2023-04-19T03:31:13;9.00;99.90
8420;DHT22;4247;48.550;8.822;2023-04-19T03:33:40;9.00;99.90
8420;DHT22;4247;48.550;8.822;2023-04-19T03:36:07;9.00;99.90
8420;DHT22;4247;48.550;8.822;2023-04-19T03:38:34;9.00;99.90
8420;DHT22;4247;48.550;8.822;2023-04-19T03:41:02;9.00;99.90
8420;DHT22;4247;48.550;8.822;2023-04-19T03:43:28;9.00;99.90
8420;DHT22;4247;48.550;8.822;2023-04-19T03:45:55;8.90;99.90
8420;DHT22;4247;48.550;8.822;2023-04-19T03:48:22;8.90;99.90
8420;DHT22;4247;48.550;8.822;2023-04-19T03:50:48;8.90;99.90
8420;DHT22;4247;48.550;8.822;2023-04-19T03:53:15;8.90;99.90
8420;DHT22;4247;48.550;8.822;2023-04-19T03:55:43;8.90;99.90
8420;DHT22;4247;48.550;8.822;2023-04-19T03:58:12;8.90;99.90
8420;DHT22;4247;48.550;8.822;2023-04-19T04:00:39;8.80;99.90
8420;DHT22;4247;48.550;8.822;2023-04-19T04:03:06;8.80;99.90
8420;DHT22;4247;48.550;8.822;2023-04-19T04:05:34;8.80;99.90
8420;DHT22;4247;48.550;8.822;2023-04-19T04:08:00;8.80;99.90
8420;DHT22;4247;48.550;8.822;2023-04-19T04:10:27;8.80;99.90
8420;DHT22;4247;48.550;8.822;2023-04-19T04:12:54;8.80;99.90
8420;DHT22;4247;48.550;8.822;2023-04-19T04:15:22;8.80;99.90
8420;DHT22;4247;48.550;8.822;2023-04-19T04:17:49;8.80;99.90
8420;DHT22;4247;48.550;8.822;2023-04-19T04:20:16;8.70;99.90
8420;DHT22;4247;48.550;8.822;2023-04-19T04:22:43;8.70;99.90
8420;DHT22;4247;48.550;8.822;2023-04-19T04:25:10;8.70;99.90
8420;DHT22;4247;48.550;8.822;2023-04-19T04:27:37;8.70;99.90
8420;DHT22;4247;48.550;8.822;2023-04-19T04:30:05;8.70;99.90
8420;DHT22;4247;48.550;8.822;2023-04-19T04:32:34;8.70;99.90
8420;DHT22;4247;48.550;8.822;2023-04-19T04:35:01;8.70;99.90
8420;DHT22;4247;48.550;8.822;2023-04-19T04:37:28;8.70;99.90
8420;DHT22;4247;48.550;8.822;2023-04-19T04:39:55;8.70;99.90
8420;DHT22;4247;48.550;8.822;2023-04-19T04:42:22;8.70;99.90
8420;DHT22;4247;48.550;8.822;2023-04-19T04:44:49;8.70;99.90
8420;DHT22;4247;48.550;8.822;2023-04-19T04:47:16;8.60;99.90
8420;DHT22;4247;48.550;8.822;2023-04-19T04:49:44;8.60;99.90
8420;DHT22;4247;48.550;8.822;2023-04-19T04:52:11;8.60;99.90
8420;DHT22;4247;48.550;8.822;2023-04-19T04:54:38;8.60;99.90
8420;DHT22;4247;48.550;8.822;2023-04-19T04:57:04;8.50;99.90
8420;DHT22;4247;48.550;8.822;2023-04-19T04:59:31;8.50;99.90
8420;DHT22;4247;48.550;8.822;2023-04-19T05:01:58;8.50;99.90
8420;DHT22;4247;48.550;8.822;2023-04-19T05:04:24;8.50;99.90
8420;DHT22;4247;48.550;8.822;2023-04-19T05:06:52;8.50;99.90
8420;DHT22;4247;48.550;8.822;2023-04-19T05:09:19;8.50;99.90
8420;DHT22;4247;48.550;8.822;2023-04-19T05:11:46;8.50;99.90
8420;DHT22;4247;48.550;8.822;2023-04-19T05:14:13;8.60;99.90
8420;DHT22;4247;48.550;8.822;2023-04-19T05:16:39;8.50;99.90
8420;DHT22;4247;48.550;8.822;2023-04-19T05:19:06;8.60;99.90
8420;DHT22;4247;48.550;8.822;2023-04-19T05:21:33;8.50;99.90
8420;DHT22;4247;48.550;8.822;2023-04-19T05:24:01;8.50;99.90
8420;DHT22;4247;48.550;8.822;2023-04-19T05:26:28;8.60;99.90
8420;DHT22;4247;48.550;8.822;2023-04-19T05:28:55;8.60;99.90
8420;DHT22;4247;48.550;8.822;2023-04-19T05:31:22;8.50;99.90
8420;DHT22;4247;48.550;8.822;2023-04-19T05:33:48;8.60;99.90
8420;DHT22;4247;48.550;8.822;2023-04-19T05:36:15;8.60;99.90
8420;DHT22;4247;48.550;8.822;2023-04-19T05:38:42;8.70;99.90
8420;DHT22;4247;48.550;8.822;2023-04-19T05:41:10;8.70;99.90
8420;DHT22;4247;48.550;8.822;2023-04-19T05:43:37;8.80;99.90
8420;DHT22;4247;48.550;8.822;2023-04-19T05:46:04;8.80;99.90
8420;DHT22;4247;48.550;8.822;2023-04-19T05:48:31;8.80;99.90
8420;DHT22;4247;48.550;8.822;2023-04-19T05:50:57;8.80;99.90
8420;DHT22;4247;48.550;8.822;2023-04-19T05:53:24;8.70;99.90
8420;DHT22;4247;48.550;8.822;2023-04-19T05:55:51;8.70;99.90
8420;DHT22;4247;48.550;8.822;2023-04-19T05:58:19;8.70;99.90
8420;DHT22;4247;48.550;8.822;2023-04-19T06:00:46;8.80;99.90
8420;DHT22;4247;48.550;8.822;2023-04-19T06:03:13;8.80;99.90
8420;DHT22;4247;48.550;8.822;2023-04-19T06:05:40;8.70;99.90
8420;DHT22;4247;48.550;8.822;2023-04-19T06:08:07;8.70;99.90
8420;DHT22;4247;48.550;8.822;2023-04-19T06:10:35;8.70;99.90
8420;DHT22;4247;48.550;8.822;2023-04-19T06:13:02;8.70;99.90
8420;DHT22;4247;48.550;8.822;2023-04-19T06:15:30;8.80;99.90
8420;DHT22;4247;48.550;8.822;2023-04-19T06:17:57;8.80;99.90
8420;DHT22;4247;48.550;8.822;2023-04-19T06:20:24;8.80;99.90
8420;DHT22;4247;48.550;8.822;2023-04-19T06:22:51;8.80;99.90
8420;DHT22;4247;48.550;8.822;2023-04-19T06:25:17;8.80;99.90
8420;DHT22;4247;48.550;8.822;2023-04-19T06:27:45;8.80;99.90
8420;DHT22;4247;48.550;8.822;2023-04-19T06:30:12;8.80;99.90
8420;DHT22;4247;48.550;8.822;2023-04-19T06:32:40;8.80;99.90
8420;DHT22;4247;48.550;8.822;2023-04-19T06:35:07;8.80;99.90
8420;DHT22;4247;48.550;8.822;2023-04-19T06:37:34;8.80;99.90
8420;DHT22;4247;48.550;8.822;2023-04-19T06:40:00;8.90;99.90
8420;DHT22;4247;48.550;8.822;2023-04-19T06:42:29;8.90;99.90
8420;DHT22;4247;48.550;8.822;2023-04-19T06:44:55;8.90;99.90
8420;DHT22;4247;48.550;8.822;2023-04-19T06:47:22;9.00;99.90
8420;DHT22;4247;48.550;8.822;2023-04-19T06:49:50;9.10;99.90
8420;DHT22;4247;48.550;8.822;2023-04-19T06:52:17;9.10;99.90
8420;DHT22;4247;48.550;8.822;2023-04-19T06:54:46;9.20;99.90
8420;DHT22;4247;48.550;8.822;2023-04-19T06:57:13;9.20;99.90
8420;DHT22;4247;48.550;8.822;2023-04-19T06:59:40;9.40;99.90
8420;DHT22;4247;48.550;8.822;2023-04-19T07:02:07;9.40;99.90
8420;DHT22;4247;48.550;8.822;2023-04-19T07:04:34;9.40;99.90
8420;DHT22;4247;48.550;8.822;2023-04-19T07:07:02;9.40;99.90
8420;DHT22;4247;48.550;8.822;2023-04-19T07:09:29;9.60;99.90
8420;DHT22;4247;48.550;8.822;2023-04-19T07:11:56;9.60;99.90
8420;DHT22;4247;48.550;8.822;2023-04-19T07:14:22;9.60;99.90
8420;DHT22;4247;48.550;8.822;2023-04-19T07:16:49;9.70;99.90
8420;DHT22;4247;48.550;8.822;2023-04-19T07:19:18;9.80;99.90
8420;DHT22;4247;48.550;8.822;2023-04-19T07:21:46;9.80;99.90
8420;DHT22;4247;48.550;8.822;2023-04-19T07:24:14;9.70;99.90
8420;DHT22;4247;48.550;8.822;2023-04-19T07:26:41;9.80;99.90
8420;DHT22;4247;48.550;8.822;2023-04-19T07:29:08;9.80;99.90
8420;DHT22;4247;48.550;8.822;2023-04-19T07:31:34;10.00;99.90
8420;DHT22;4247;48.550;8.822;2023-04-19T07:34:01;10.00;99.90
8420;DHT22;4247;48.550;8.822;2023-04-19T07:36:28;10.00;99.90
8420;DHT22;4247;48.550;8.822;2023-04-19T07:38:56;9.90;99.90
8420;DHT22;4247;48.550;8.822;2023-04-19T07:41:24;9.90;99.90
8420;DHT22;4247;48.550;8.822;2023-04-19T07:43:50;9.90;99.90
8420;DHT22;4247;48.550;8.822;2023-04-19T07:46:17;9.90;99.90
8420;DHT22;4247;48.550;8.822;2023-04-19T07:48:44;9.90;99.90
8420;DHT22;4247;48.550;8.822;2023-04-19T07:51:11;9.90;99.90
8420;DHT22;4247;48.550;8.822;2023-04-19T07:53:39;10.00;99.90
8420;DHT22;4247;48.550;8.822;2023-04-19T07:56:07;10.10;99.90
8420;DHT22;4247;48.550;8.822;2023-04-19T07:58:35;10.10;99.90
8420;DHT22;4247;48.550;8.822;2023-04-19T08:01:02;10.20;99.90
8420;DHT22;4247;48.550;8.822;2023-04-19T08:03:29;10.10;99.90
8420;DHT22;4247;48.550;8.822;2023-04-19T08:05:56;10.10;99.90
8420;DHT22;4247;48.550;8.822;2023-04-19T08:08:23;10.20;99.90
8420;DHT22;4247;48.550;8.822;2023-04-19T08:10:50;10.20;99.90
8420;DHT22;4247;48.550;8.822;2023-04-19T08:13:19;10.30;99.90
8420;DHT22;4247;48.550;8.822;2023-04-19T08:15:47;10.40;99.90
8420;DHT22;4247;48.550;8.822;2023-04-19T08:18:14;10.50;99.90
8420;DHT22;4247;48.550;8.822;2023-04-19T08:20:41;10.50;99.90
8420;DHT22;4247;48.550;8.822;2023-04-19T08:23:08;10.60;99.90
8420;DHT22;4247;48.550;8.822;2023-04-19T08:25:35;10.70;99.90
8420;DHT22;4247;48.550;8.822;2023-04-19T08:28:02;10.70;99.90
8420;DHT22;4247;48.550;8.822;2023-04-19T08:30:29;10.90;99.90
8420;DHT22;4247;48.550;8.822;2023-04-19T08:32:57;11.10;99.90
8420;DHT22;4247;48.550;8.822;2023-04-19T08:35:24;11.20;99.90
8420;DHT22;4247;48.550;8.822;2023-04-19T08:37:51;11.30;99.90
8420;DHT22;4247;48.550;8.822;2023-04-19T08:40:17;11.40;99.90
8420;DHT22;4247;48.550;8.822;2023-04-19T08:42:44;11.40;99.90
8420;DHT22;4247;48.550;8.822;2023-04-19T08:45:11;11.50;99.90
8420;DHT22;4247;48.550;8.822;2023-04-19T08:47:40;11.50;99.90
8420;DHT22;4247;48.550;8.822;2023-04-19T08:50:08;11.60;99.90
8420;DHT22;4247;48.550;8.822;2023-04-19T08:52:36;11.60;99.90
8420;DHT22;4247;48.550;8.822;2023-04-19T08:55:04;11.70;99.90
8420;DHT22;4247;48.550;8.822;2023-04-19T08:57:31;11.80;99.90
8420;DHT22;4247;48.550;8.822;2023-04-19T08:59:58;11.80;99.90
8420;DHT22;4247;48.550;8.822;2023-04-19T09:02:25;11.90;99.90
8420;DHT22;4247;48.550;8.822;2023-04-19T09:04:52;11.90;99.90
8420;DHT22;4247;48.550;8.822;2023-04-19T09:07:23;12.00;99.90
8420;DHT22;4247;48.550;8.822;2023-04-19T09:10:04;12.00;99.90
8420;DHT22;4247;48.550;8.822;2023-04-19T09:12:32;12.00;99.90
8420;DHT22;4247;48.550;8.822;2023-04-19T09:15:00;12.00;99.90
8420;DHT22;4247;48.550;8.822;2023-04-19T09:17:27;12.10;99.90
8420;DHT22;4247;48.550;8.822;2023-04-19T09:19:54;12.20;99.90
8420;DHT22;4247;48.550;8.822;2023-04-19T09:22:23;12.20;99.90
8420;DHT22;4247;48.550;8.822;2023-04-19T09:24:49;12.30;99.90
8420;DHT22;4247;48.550;8.822;2023-04-19T09:27:25;12.30;99.90
8420;DHT22;4247;48.550;8.822;2023-04-19T09:29:52;12.20;99.90
8420;DHT22;4247;48.550;8.822;2023-04-19T09:32:19;12.10;99.90
8420;DHT22;4247;48.550;8.822;2023-04-19T09:34:50;12.10;99.90
8420;DHT22;4247;48.550;8.822;2023-04-19T09:37:18;12.00;99.90
8420;DHT22;4247;48.550;8.822;2023-04-19T09:39:46;12.10;99.90
8420;DHT22;4247;48.550;8.822;2023-04-19T09:42:13;12.10;99.90
8420;DHT22;4247;48.550;8.822;2023-04-19T09:44:39;12.10;99.90
8420;DHT22;4247;48.550;8.822;2023-04-19T09:47:21;12.00;99.90
8420;DHT22;4247;48.550;8.822;2023-04-19T09:50:03;11.90;99.90
8420;DHT22;4247;48.550;8.822;2023-04-19T09:52:31;12.00;99.90
8420;DHT22;4247;48.550;8.822;2023-04-19T09:54:59;11.90;99.90
8420;DHT22;4247;48.550;8.822;2023-04-19T09:57:26;11.90;99.90
8420;DHT22;4247;48.550;8.822;2023-04-19T09:59:53;11.80;99.90
8420;DHT22;4247;48.550;8.822;2023-04-19T10:02:21;11.90;99.90
8420;DHT22;4247;48.550;8.822;2023-04-19T10:04:50;12.00;99.90
8420;DHT22;4247;48.550;8.822;2023-04-19T10:07:17;11.90;99.90
8420;DHT22;4247;48.550;8.822;2023-04-19T10:09:45;12.00;99.90
8420;DHT22;4247;48.550;8.822;2023-04-19T10:12:14;12.00;99.90
8420;DHT22;4247;48.550;8.822;2023-04-19T10:14:41;12.00;99.90
8420;DHT22;4247;48.550;8.822;2023-04-19T10:17:08;12.00;99.90
8420;DHT22;4247;48.550;8.822;2023-04-19T10:19:36;12.10;99.90
8420;DHT22;4247;48.550;8.822;2023-04-19T10:22:03;12.30;99.90
8420;DHT22;4247;48.550;8.822;2023-04-19T10:24:32;12.50;99.90
8420;DHT22;4247;48.550;8.822;2023-04-19T10:27:08;12.80;99.90
8420;DHT22;4247;48.550;8.822;2023-04-19T10:29:57;12.90;99.90
8420;DHT22;4247;48.550;8.822;2023-04-19T10:32:26;13.10;99.90
8420;DHT22;4247;48.550;8.822;2023-04-19T10:34:53;13.20;99.90
8420;DHT22;4247;48.550;8.822;2023-04-19T10:37:24;13.20;99.90
8420;DHT22;4247;48.550;8.822;2023-04-19T10:39:51;13.30;99.90
8420;DHT22;4247;48.550;8.822;2023-04-19T10:42:18;13.30;99.90
8420;DHT22;4247;48.550;8.822;2023-04-19T10:47:46;13.20;99.90
8420;DHT22;4247;48.550;8.822;2023-04-19T10:50:15;13.30;99.90
8420;DHT22;4247;48.550;8.822;2023-04-19T10:52:42;13.30;99.90
8420;DHT22;4247;48.550;8.822;2023-04-19T10:55:14;13.30;99.90
8420;DHT22;4247;48.550;8.822;2023-04-19T10:58:00;13.30;99.90
8420;DHT22;4247;48.550;8.822;2023-04-19T11:00:27;13.30;99.90
8420;DHT22;4247;48.550;8.822;2023-04-19T11:02:57;13.40;99.90
8420;DHT22;4247;48.550;8.822;2023-04-19T11:05:24;13.30;99.90
8420;DHT22;4247;48.550;8.822;2023-04-19T11:07:51;13.30;99.90
8420;DHT22;4247;48.550;8.822;2023-04-19T11:10:27;13.30;99.90
8420;DHT22;4247;48.550;8.822;2023-04-19T11:17:59;13.20;99.90
8420;DHT22;4247;48.550;8.822;2023-04-19T11:20:26;13.10;99.90
8420;DHT22;4247;48.550;8.822;2023-04-19T11:22:52;13.00;99.90
8420;DHT22;4247;48.550;8.822;2023-04-19T11:25:24;12.70;99.90
8420;DHT22;4247;48.550;8.822;2023-04-19T11:27:52;12.70;99.90
8420;DHT22;4247;48.550;8.822;2023-04-19T11:30:21;12.50;99.90
8420;DHT22;4247;48.550;8.822;2023-04-19T11:32:55;12.50;99.90
8420;DHT22;4247;48.550;8.822;2023-04-19T11:35:24;12.40;99.90
8420;DHT22;4247;48.550;8.822;2023-04-19T11:37:52;12.50;99.90
8420;DHT22;4247;48.550;8.822;2023-04-19T11:40:21;12.50;99.90
8420;DHT22;4247;48.550;8.822;2023-04-19T11:42:53;12.50;99.90
8420;DHT22;4247;48.550;8.822;2023-04-19T11:45:24;12.50;99.90
8420;DHT22;4247;48.550;8.822;2023-04-19T11:47:53;12.50;99.90
8420;DHT22;4247;48.550;8.822;2023-04-19T11:50:32;12.60;99.90
8420;DHT22;4247;48.550;8.822;2023-04-19T11:53:08;12.60;99.90
8420;DHT22;4247;48.550;8.822;2023-04-19T11:55:35;12.70;99.90
8420;DHT22;4247;48.550;8.822;2023-04-19T11:58:02;12.80;99.90
8420;DHT22;4247;48.550;8.822;2023-04-19T12:00:29;12.80;99.90
8420;DHT22;4247;48.550;8.822;2023-04-19T12:02:56;12.70;99.90
8420;DHT22;4247;48.550;8.822;2023-04-19T12:05:23;12.60;99.90
8420;DHT22;4247;48.550;8.822;2023-04-19T12:08:01;12.60;99.90
8420;DHT22;4247;48.550;8.822;2023-04-19T12:10:29;12.50;99.90
8420;DHT22;4247;48.550;8.822;2023-04-19T12:12:56;12.50;99.90
8420;DHT22;4247;48.550;8.822;2023-04-19T12:15:23;12.60;99.90
8420;DHT22;4247;48.550;8.822;2023-04-19T12:17:57;12.60;99.90
8420;DHT22;4247;48.550;8.822;2023-04-19T12:20:28;12.50;99.90
8420;DHT22;4247;48.550;8.822;2023-04-19T12:22:55;12.40;99.90
8420;DHT22;4247;48.550;8.822;2023-04-19T12:25:27;12.40;99.90
8420;DHT22;4247;48.550;8.822;2023-04-19T12:27:54;12.40;99.90
8420;DHT22;4247;48.550;8.822;2023-04-19T12:30:20;12.40;99.90
8420;DHT22;4247;48.550;8.822;2023-04-19T12:32:47;12.60;99.90
8420;DHT22;4247;48.550;8.822;2023-04-19T12:35:15;12.60;99.90
8420;DHT22;4247;48.550;8.822;2023-04-19T12:37:42;12.80;99.90
8420;DHT22;4247;48.550;8.822;2023-04-19T12:40:10;12.90;99.90
8420;DHT22;4247;48.550;8.822;2023-04-19T12:42:38;12.90;99.90
8420;DHT22;4247;48.550;8.822;2023-04-19T12:45:06;12.90;99.90
8420;DHT22;4247;48.550;8.822;2023-04-19T12:47:32;12.90;99.90
8420;DHT22;4247;48.550;8.822;2023-04-19T12:49:59;12.80;99.90
8420;DHT22;4247;48.550;8.822;2023-04-19T12:52:26;12.80;99.90
8420;DHT22;4247;48.550;8.822;2023-04-19T12:54:52;12.70;99.90
8420;DHT22;4247;48.550;8.822;2023-04-19T12:57:19;12.60;99.90
8420;DHT22;4247;48.550;8.822;2023-04-19T12:59:47;12.50;99.90
8420;DHT22;4247;48.550;8.822;2023-04-19T13:02:14;12.50;99.90
8420;DHT22;4247;48.550;8.822;2023-04-19T13:04:41;12.40;99.90
8420;DHT22;4247;48.550;8.822;2023-04-19T13:07:08;12.50;99.90
8420;DHT22;4247;48.550;8.822;2023-04-19T13:09:34;12.40;99.90
8420;DHT22;4247;48.550;8.822;2023-04-19T13:12:01;12.30;99.90
8420;DHT22;4247;48.550;8.822;2023-04-19T13:14:28;12.10;99.90
8420;DHT22;4247;48.550;8.822;2023-04-19T13:16:56;12.20;99.90
8420;DHT22;4247;48.550;8.822;2023-04-19T13:19:22;12.30;99.90
8420;DHT22;4247;48.550;8.822;2023-04-19T13:21:49;12.10;99.90
8420;DHT22;4247;48.550;8.822;2023-04-19T13:24:16;11.90;99.90
8420;DHT22;4247;48.550;8.822;2023-04-19T13:26:42;11.90;99.90
8420;DHT22;4247;48.550;8.822;2023-04-19T13:29:10;11.80;99.90
8420;DHT22;4247;48.550;8.822;2023-04-19T13:31:37;11.60;99.90
8420;DHT22;4247;48.550;8.822;2023-04-19T13:34:05;11.50;99.90
8420;DHT22;4247;48.550;8.822;2023-04-19T13:36:32;11.30;99.90
8420;DHT22;4247;48.550;8.822;2023-04-19T13:38:58;11.30;99.90
8420;DHT22;4247;48.550;8.822;2023-04-19T13:41:25;11.20;99.90
8420;DHT22;4247;48.550;8.822;2023-04-19T13:43:52;11.10;99.90
8420;DHT22;4247;48.550;8.822;2023-04-19T13:46:18;11.00;99.90
8420;DHT22;4247;48.550;8.822;2023-04-19T13:48:45;11.10;99.90
8420;DHT22;4247;48.550;8.822;2023-04-19T13:51:13;11.00;99.90
8420;DHT22;4247;48.550;8.822;2023-04-19T13:53:40;11.00;99.90
8420;DHT22;4247;48.550;8.822;2023-04-19T13:56:06;10.90;99.90
8420;DHT22;4247;48.550;8.822;2023-04-19T13:58:34;10.90;99.90
8420;DHT22;4247;48.550;8.822;2023-04-19T14:01:01;10.80;99.90
8420;DHT22;4247;48.550;8.822;2023-04-19T14:03:30;10.60;99.90
8420;DHT22;4247;48.550;8.822;2023-04-19T14:05:57;10.60;99.90
8420;DHT22;4247;48.550;8.822;2023-04-19T14:08:25;10.50;99.90
8420;DHT22;4247;48.550;8.822;2023-04-19T14:10:52;10.40;99.90
8420;DHT22;4247;48.550;8.822;2023-04-19T14:13:19;10.20;99.90
8420;DHT22;4247;48.550;8.822;2023-04-19T14:15:46;10.10;99.90
8420;DHT22;4247;48.550;8.822;2023-04-19T14:18:12;10.00;99.90
8420;DHT22;4247;48.550;8.822;2023-04-19T14:20:39;10.00;99.90
8420;DHT22;4247;48.550;8.822;2023-04-19T14:23:06;10.00;99.90
8420;DHT22;4247;48.550;8.822;2023-04-19T14:25:34;10.00;99.90
8420;DHT22;4247;48.550;8.822;2023-04-19T14:28:01;10.00;99.90
8420;DHT22;4247;48.550;8.822;2023-04-19T14:30:28;10.00;99.90
8420;DHT22;4247;48.550;8.822;2023-04-19T14:32:54;10.10;99.90
8420;DHT22;4247;48.550;8.822;2023-04-19T14:35:21;10.10;99.90
8420;DHT22;4247;48.550;8.822;2023-04-19T14:37:48;10.10;99.90
8420;DHT22;4247;48.550;8.822;2023-04-19T14:40:15;10.10;99.90
8420;DHT22;4247;48.550;8.822;2023-04-19T14:42:43;10.00;99.90
8420;DHT22;4247;48.550;8.822;2023-04-19T14:45:10;10.00;99.90
8420;DHT22;4247;48.550;8.822;2023-04-19T14:47:37;10.00;99.90
8420;DHT22;4247;48.550;8.822;2023-04-19T14:50:05;9.90;99.90
8420;DHT22;4247;48.550;8.822;2023-04-19T14:52:31;9.90;99.90
8420;DHT22;4247;48.550;8.822;2023-04-19T14:54:59;9.90;99.90
8420;DHT22;4247;48.550;8.822;2023-04-19T14:57:26;9.90;99.90
8420;DHT22;4247;48.550;8.822;2023-04-19T14:59:55;9.90;99.90
8420;DHT22;4247;48.550;8.822;2023-04-19T15:02:22;9.80;99.90
8420;DHT22;4247;48.550;8.822;2023-04-19T15:04:49;9.80;99.90
8420;DHT22;4247;48.550;8.822;2023-04-19T15:07:16;9.80;99.90
8420;DHT22;4247;48.550;8.822;2023-04-19T15:09:43;9.80;99.90
8420;DHT22;4247;48.550;8.822;2023-04-19T15:12:10;9.70;99.90
8420;DHT22;4247;48.550;8.822;2023-04-19T15:14:37;9.70;99.90
8420;DHT22;4247;48.550;8.822;2023-04-19T15:17:05;9.70;99.90
8420;DHT22;4247;48.550;8.822;2023-04-19T15:19:32;9.70;99.90
8420;DHT22;4247;48.550;8.822;2023-04-19T15:21:58;9.70;99.90
8420;DHT22;4247;48.550;8.822;2023-04-19T15:24:25;9.70;99.90
8420;DHT22;4247;48.550;8.822;2023-04-19T15:26:52;9.60;99.90
8420;DHT22;4247;48.550;8.822;2023-04-19T15:29:18;9.60;99.90
8420;DHT22;4247;48.550;8.822;2023-04-19T15:31:45;9.50;99.90
8420;DHT22;4247;48.550;8.822;2023-04-19T15:34:13;9.50;99.90
8420;DHT22;4247;48.550;8.822;2023-04-19T15:36:40;9.50;99.90
8420;DHT22;4247;48.550;8.822;2023-04-19T15:39:06;9.60;99.90
8420;DHT22;4247;48.550;8.822;2023-04-19T15:41:33;9.60;99.90
8420;DHT22;4247;48.550;8.822;2023-04-19T15:44:00;9.50;99.90
8420;DHT22;4247;48.550;8.822;2023-04-19T15:46:27;9.50;99.90
8420;DHT22;4247;48.550;8.822;2023-04-19T15:48:53;9.50;99.90
8420;DHT22;4247;48.550;8.822;2023-04-19T15:51:21;9.60;99.90
8420;DHT22;4247;48.550;8.822;2023-04-19T15:53:48;9.60;99.90
8420;DHT22;4247;48.550;8.822;2023-04-19T15:56:15;9.60;99.90
8420;DHT22;4247;48.550;8.822;2023-04-19T15:58:41;9.70;99.90
8420;DHT22;4247;48.550;8.822;2023-04-19T16:01:10;9.70;99.90
8420;DHT22;4247;48.550;8.822;2023-04-19T16:03:37;9.70;99.90
8420;DHT22;4247;48.550;8.822;2023-04-19T16:06:04;9.70;99.90
8420;DHT22;4247;48.550;8.822;2023-04-19T16:08:32;9.80;99.90
8420;DHT22;4247;48.550;8.822;2023-04-19T16:10:59;9.70;99.90
8420;DHT22;4247;48.550;8.822;2023-04-19T16:13:25;9.80;99.90
8420;DHT22;4247;48.550;8.822;2023-04-19T16:15:52;9.70;99.90
8420;DHT22;4247;48.550;8.822;2023-04-19T16:18:19;9.80;99.90
8420;DHT22;4247;48.550;8.822;2023-04-19T16:20:46;9.80;99.90